createdAt,value
2023-02-16T00:01:27.268Z,23.37
2023-02-16T00:03:57.380Z,23.27
2023-02-16T00:06:25.943Z,23.29
2023-02-16T00:08:55.778Z,23.34
2023-02-16T00:11:52.379Z,23.21
2023-02-16T00:14:23.677Z,23.20
2023-02-16T00:16:55.173Z,23.13
2023-02-16T00:19:27.965Z,23.10
2023-02-16T00:21:59.429Z,23.08
2023-02-16T00:24:28.828Z,23.12
2023-02-16T00:26:57.977Z,23.10
2023-02-16T00:29:28.719Z,23.08
2023-02-16T00:31:58.129Z,23.05
2023-02-16T00:34:30.607Z,23.12
2023-02-16T00:36:59.954Z,23.06
2023-02-16T00:39:30.191Z,23.05
2023-02-16T00:42:07.421Z,23.08
2023-02-16T00:44:43.094Z,23.03
2023-02-16T00:47:22.847Z,23.02
2023-02-16T00:49:54.046Z,23.04
2023-02-16T00:52:42.927Z,23.01
2023-02-16T00:55:16.863Z,23.08
2023-02-16T00:57:54.255Z,23.09
2023-02-16T01:00:26.787Z,23.09
2023-02-16T01:03:04.450Z,23.10
2023-02-16T01:05:32.184Z,23.04
2023-02-16T01:08:20.176Z,23.08
2023-02-16T01:11:09.922Z,23.17
2023-02-16T01:13:51.677Z,23.07
2023-02-16T01:16:25.745Z,23.06
2023-02-16T01:18:53.968Z,23.17
2023-02-16T01:21:24.107Z,23.23
2023-02-16T01:23:54.716Z,23.21
2023-02-16T01:26:25.482Z,23.16
2023-02-16T01:28:56.068Z,23.25
2023-02-16T01:31:26.255Z,23.20
2023-02-16T01:33:56.274Z,23.16
2023-02-16T01:36:40.261Z,23.23
2023-02-16T01:39:11.090Z,23.13
2023-02-16T01:42:05.416Z,23.10
2023-02-16T01:44:44.653Z,23.12
2023-02-16T01:47:50.916Z,23.22
2023-02-16T01:50:23.028Z,23.28
2023-02-16T01:52:59.796Z,23.22
2023-02-16T01:55:35.026Z,23.23
2023-02-16T01:58:11.835Z,23.23
2023-02-16T02:00:55.612Z,23.23
2023-02-16T02:03:52.221Z,23.15
2023-02-16T02:06:25.216Z,23.22
2023-02-16T02:09:23.182Z,23.29
2023-02-16T02:12:06.644Z,23.15
2023-02-16T02:14:38.554Z,23.24
2023-02-16T02:17:15.170Z,23.16
2023-02-16T02:20:23.819Z,23.07
2023-02-16T02:23:31.044Z,23.06
2023-02-16T02:26:20.240Z,23.04
2023-02-16T02:28:53.767Z,23.04
2023-02-16T02:31:37.038Z,23.08
2023-02-16T02:34:23.263Z,23.11
2023-02-16T02:37:21.794Z,23.11
2023-02-16T02:40:03.274Z,23.11
2023-02-16T02:43:01.635Z,23.15
2023-02-16T02:45:41.388Z,23.16
2023-02-16T02:48:12.179Z,23.10
2023-02-16T02:51:30.876Z,23.11
2023-02-16T02:54:26.983Z,23.15
2023-02-16T02:57:56.343Z,23.38
2023-02-16T03:00:44.244Z,23.22
2023-02-16T03:03:20.998Z,23.32
2023-02-16T03:05:55.409Z,23.21
2023-02-16T03:08:27.945Z,23.48
2023-02-16T03:11:25.924Z,23.41
2023-02-16T03:14:02.389Z,23.42
2023-02-16T03:16:35.909Z,23.42
2023-02-16T03:19:22.514Z,23.42
2023-02-16T03:22:10.739Z,23.47
2023-02-16T03:24:59.932Z,23.49
2023-02-16T03:27:52.784Z,23.48
2023-02-16T03:30:23.385Z,23.39
2023-02-16T03:32:51.715Z,23.32
2023-02-16T03:35:22.552Z,23.34
2023-02-16T03:37:53.311Z,23.07
2023-02-16T03:40:29.118Z,23.13
2023-02-16T03:43:07.156Z,23.13
2023-02-16T03:45:37.275Z,23.11
2023-02-16T03:48:05.325Z,23.18
2023-02-16T03:50:33.990Z,23.20
2023-02-16T03:53:07.443Z,23.22
2023-02-16T03:55:34.845Z,23.23
2023-02-16T03:58:03.218Z,23.13
2023-02-16T04:00:37.522Z,23.16
2023-02-16T04:03:09.191Z,23.19
2023-02-16T04:05:39.267Z,23.12
2023-02-16T04:08:08.274Z,23.09
2023-02-16T04:10:39.242Z,22.93
2023-02-16T04:13:07.277Z,22.97
2023-02-16T04:15:42.534Z,22.88
2023-02-16T04:18:09.840Z,22.86
2023-02-16T04:20:37.300Z,22.92
2023-02-16T04:23:07.734Z,22.93
2023-02-16T04:25:37.600Z,22.80
2023-02-16T04:28:07.285Z,22.79
2023-02-16T04:30:40.179Z,22.76
2023-02-16T04:33:09.980Z,22.76
2023-02-16T04:35:37.666Z,22.79
2023-02-16T04:38:05.120Z,22.79
2023-02-16T04:40:32.567Z,22.77
2023-02-16T04:43:00.152Z,22.77
2023-02-16T04:45:32.816Z,22.72
2023-02-16T04:48:14.470Z,22.75
2023-02-16T04:50:42.561Z,22.87
2023-02-16T04:53:15.703Z,22.78
2023-02-16T04:55:50.200Z,22.82
2023-02-16T04:58:17.872Z,22.78
2023-02-16T05:00:48.357Z,22.76
2023-02-16T05:03:18.981Z,22.89
2023-02-16T05:05:46.659Z,22.90
2023-02-16T05:08:14.266Z,22.93
2023-02-16T05:10:42.626Z,22.89
2023-02-16T05:13:29.798Z,22.94
2023-02-16T05:15:57.284Z,22.98
2023-02-16T05:18:24.575Z,22.99
2023-02-16T05:21:13.269Z,23.03
2023-02-16T05:23:46.853Z,23.04
2023-02-16T05:26:19.192Z,23.15
2023-02-16T05:28:46.768Z,23.07
2023-02-16T05:31:16.810Z,23.05
2023-02-16T05:33:47.348Z,23.00
2023-02-16T05:36:17.323Z,22.97
2023-02-16T05:38:48.420Z,22.82
2023-02-16T05:41:23.547Z,22.79
2023-02-16T05:43:54.073Z,22.83
2023-02-16T05:46:27.095Z,22.76
2023-02-16T05:48:55.232Z,22.71
2023-02-16T05:51:23.508Z,22.73
2023-02-16T05:53:51.171Z,22.76
2023-02-16T05:56:21.417Z,22.76
2023-02-16T05:58:50.476Z,22.90
2023-02-16T06:01:18.214Z,22.94
2023-02-16T06:03:46.000Z,22.95
2023-02-16T06:06:14.321Z,22.99
2023-02-16T06:08:44.488Z,22.94
2023-02-16T06:11:33.105Z,22.89
2023-02-16T06:14:01.796Z,22.90
2023-02-16T06:16:31.054Z,22.82
2023-02-16T06:19:03.433Z,22.82
2023-02-16T06:21:34.504Z,22.82
2023-02-16T06:24:02.564Z,22.87
2023-02-16T06:26:33.753Z,22.92
2023-02-16T06:29:04.845Z,22.87
2023-02-16T06:31:36.881Z,22.94
2023-02-16T06:34:07.964Z,22.95
2023-02-16T06:36:41.342Z,22.95
2023-02-16T06:39:10.288Z,22.93
2023-02-16T06:41:43.300Z,22.87
2023-02-16T06:44:13.612Z,22.75
2023-02-16T06:46:42.959Z,22.79
2023-02-16T06:49:20.317Z,22.75
2023-02-16T06:51:51.428Z,22.70
2023-02-16T06:54:21.828Z,22.70
2023-02-16T06:56:49.378Z,22.72
2023-02-16T06:59:19.251Z,22.75
2023-02-16T07:01:49.260Z,22.76
2023-02-16T07:04:19.767Z,22.83
2023-02-16T07:06:50.519Z,22.92
2023-02-16T07:09:18.395Z,22.89
2023-02-16T07:11:46.372Z,22.86
2023-02-16T07:14:17.595Z,22.88
2023-02-16T07:16:47.819Z,22.86
2023-02-16T07:19:17.415Z,22.80
2023-02-16T07:21:47.437Z,23.02
2023-02-16T07:24:18.695Z,23.02
2023-02-16T07:26:46.355Z,23.11
2023-02-16T07:29:19.295Z,23.11
2023-02-16T07:31:50.883Z,23.44
2023-02-16T07:34:22.965Z,23.25
2023-02-16T07:36:53.390Z,23.23
2023-02-16T07:39:23.833Z,23.28
2023-02-16T07:41:51.657Z,23.32
2023-02-16T07:44:22.475Z,23.54
2023-02-16T07:46:57.962Z,23.41
2023-02-16T07:49:31.138Z,23.45
2023-02-16T07:52:01.843Z,23.63
2023-02-16T07:54:32.667Z,23.65
2023-02-16T07:57:04.538Z,24.32
2023-02-16T07:59:33.665Z,24.33
2023-02-16T08:02:05.026Z,24.66
2023-02-16T08:04:36.037Z,24.54
2023-02-16T08:07:08.490Z,24.33
2023-02-16T08:09:38.890Z,24.14
2023-02-16T08:12:11.228Z,24.03
2023-02-16T08:14:41.966Z,24.22
2023-02-16T08:17:15.163Z,24.05
2023-02-16T08:19:43.192Z,24.10
2023-02-16T08:22:15.285Z,23.87
2023-02-16T08:24:45.271Z,24.10
2023-02-16T08:27:13.142Z,24.35
2023-02-16T08:29:41.973Z,24.05
2023-02-16T08:32:16.801Z,24.38
2023-02-16T08:34:44.640Z,24.36
2023-02-16T08:37:13.873Z,24.25
2023-02-16T08:39:42.379Z,24.10
2023-02-16T08:42:13.519Z,24.12
2023-02-16T08:44:47.159Z,24.48
2023-02-16T08:47:16.872Z,24.37
2023-02-16T08:49:48.753Z,24.53
2023-02-16T08:52:16.913Z,24.75
2023-02-16T08:54:44.667Z,24.54
2023-02-16T08:57:14.763Z,24.30
2023-02-16T09:00:10.326Z,23.96
2023-02-16T09:02:41.060Z,24.07
2023-02-16T09:05:13.497Z,24.59
2023-02-16T09:07:41.600Z,24.29
2023-02-16T09:10:09.559Z,24.42
2023-02-16T09:12:40.348Z,24.18
2023-02-16T09:15:11.559Z,24.11
2023-02-16T09:17:41.637Z,24.41
2023-02-16T09:20:13.508Z,24.60
2023-02-16T09:22:47.323Z,24.64
2023-02-16T09:25:20.732Z,24.80
2023-02-16T09:27:48.568Z,24.51
2023-02-16T09:30:17.354Z,24.63
2023-02-16T09:32:50.786Z,24.43
2023-02-16T09:35:21.914Z,24.79
2023-02-16T09:37:56.006Z,24.55
2023-02-16T09:40:24.844Z,24.62
2023-02-16T09:43:35.143Z,24.31
2023-02-16T09:46:12.566Z,24.83
2023-02-16T09:48:48.933Z,24.82
2023-02-16T09:51:48.031Z,25.13
2023-02-16T09:54:43.958Z,25.77
2023-02-16T09:57:33.928Z,25.63
2023-02-16T10:00:16.419Z,25.78
2023-02-16T10:02:55.913Z,26.42
2023-02-16T10:05:37.734Z,26.63
2023-02-16T10:08:25.087Z,26.64
2023-02-16T10:11:33.100Z,26.37
2023-02-16T10:14:31.429Z,25.75
2023-02-16T10:17:28.485Z,25.84
2023-02-16T10:19:59.994Z,25.10
2023-02-16T10:22:38.574Z,25.36
2023-02-16T10:25:10.733Z,25.30
2023-02-16T10:27:42.215Z,25.26
2023-02-16T10:30:22.020Z,25.53
2023-02-16T10:33:28.464Z,25.90
2023-02-16T10:36:00.894Z,25.69
2023-02-16T10:38:41.263Z,25.79
2023-02-16T10:41:57.700Z,25.85
2023-02-16T10:44:40.251Z,25.81
2023-02-16T10:47:27.395Z,25.61
2023-02-16T10:50:02.765Z,25.68
2023-02-16T10:52:36.204Z,25.30
2023-02-16T10:55:04.544Z,25.19
2023-02-16T10:57:35.193Z,25.13
2023-02-16T11:00:10.519Z,25.39
2023-02-16T11:02:48.415Z,25.47
2023-02-16T11:05:39.061Z,25.14
2023-02-16T11:08:11.439Z,25.16
2023-02-16T11:10:50.552Z,25.34
2023-02-16T11:13:24.698Z,25.49
2023-02-16T11:15:57.676Z,25.55
2023-02-16T11:18:33.398Z,25.71
2023-02-16T11:21:04.605Z,25.72
2023-02-16T11:23:37.988Z,25.97
2023-02-16T11:26:12.716Z,26.13
2023-02-16T11:28:45.951Z,26.00
2023-02-16T11:31:33.758Z,25.73
2023-02-16T11:34:14.014Z,25.41
2023-02-16T11:36:47.453Z,25.48
2023-02-16T11:39:23.831Z,25.63
2023-02-16T11:42:00.438Z,25.82
2023-02-16T11:44:41.313Z,25.78
2023-02-16T11:47:33.131Z,25.77
2023-02-16T11:50:24.875Z,26.07
2023-02-16T11:52:55.266Z,25.92
2023-02-16T11:55:32.760Z,25.85
2023-02-16T11:58:27.792Z,25.89
2023-02-16T12:01:28.647Z,25.73
2023-02-16T12:04:26.774Z,25.46
2023-02-16T12:07:15.628Z,25.58
2023-02-16T12:10:04.153Z,25.30
2023-02-16T12:13:13.622Z,25.30
2023-02-16T12:16:08.855Z,25.00
2023-02-16T12:18:59.071Z,24.97
2023-02-16T12:21:37.801Z,24.86
2023-02-16T12:24:40.127Z,24.83
2023-02-16T12:27:52.585Z,24.66
2023-02-16T12:30:33.991Z,24.60
2023-02-16T12:33:13.404Z,24.48
2023-02-16T12:36:20.122Z,24.40
2023-02-16T12:39:12.821Z,24.40
2023-02-16T12:42:17.033Z,24.37
2023-02-16T12:44:50.750Z,24.33
2023-02-16T12:47:35.193Z,24.31
2023-02-16T12:50:11.116Z,24.25
2023-02-16T12:52:43.560Z,24.20
2023-02-16T12:55:17.172Z,24.33
2023-02-16T12:58:23.949Z,24.27
2023-02-16T13:01:05.353Z,24.22
2023-02-16T13:03:52.663Z,24.30
2023-02-16T13:06:42.780Z,24.25
2023-02-16T13:09:43.754Z,24.31
2023-02-16T13:12:42.787Z,24.37
2023-02-16T13:15:19.679Z,24.21
2023-02-16T13:18:01.445Z,24.24
2023-02-16T13:20:38.695Z,24.32
2023-02-16T13:23:30.388Z,24.29
2023-02-16T13:26:41.070Z,24.27
2023-02-16T13:29:37.774Z,24.24
2023-02-16T13:32:33.493Z,24.38
2023-02-16T13:35:22.921Z,24.56
2023-02-16T13:38:15.742Z,24.56
2023-02-16T13:41:00.807Z,24.62
2023-02-16T13:43:37.298Z,24.53
2023-02-16T13:46:40.164Z,24.65
2023-02-16T13:49:26.678Z,24.68
2023-02-16T13:52:00.894Z,24.43
2023-02-16T13:54:35.248Z,24.56
2023-02-16T13:57:22.133Z,24.68
2023-02-16T14:00:00.929Z,24.61
2023-02-16T14:02:57.203Z,24.77
2023-02-16T14:05:36.016Z,24.66
2023-02-16T14:08:15.648Z,24.68
2023-02-16T14:10:53.623Z,24.74
2023-02-16T14:13:33.127Z,24.73
2023-02-16T14:16:29.899Z,24.74
2023-02-16T14:19:25.482Z,24.74
2023-02-16T14:21:56.034Z,24.81
2023-02-16T14:24:26.984Z,24.84
2023-02-16T14:27:02.117Z,24.84
2023-02-16T14:29:36.930Z,24.66
2023-02-16T14:32:32.364Z,24.73
2023-02-16T14:35:17.141Z,24.78
2023-02-16T14:37:55.043Z,24.73
2023-02-16T14:40:37.686Z,24.75
2023-02-16T14:43:37.703Z,24.77
2023-02-16T14:46:26.597Z,24.87
2023-02-16T14:49:33.729Z,24.78
2023-02-16T14:52:22.940Z,24.83
2023-02-16T14:55:02.759Z,24.83
2023-02-16T14:57:36.646Z,24.82
2023-02-16T15:00:15.518Z,24.84
2023-02-16T15:03:02.342Z,24.86
2023-02-16T15:05:34.720Z,24.77
2023-02-16T15:08:09.625Z,24.75
2023-02-16T15:10:46.663Z,24.70
2023-02-16T15:13:23.084Z,24.77
2023-02-16T15:15:59.073Z,24.74
2023-02-16T15:18:44.588Z,24.72
2023-02-16T15:21:26.996Z,24.62
2023-02-16T15:24:01.672Z,24.68
2023-02-16T15:26:36.145Z,24.66
2023-02-16T15:29:29.606Z,24.66
2023-02-16T15:32:06.186Z,24.69
2023-02-16T15:34:37.673Z,24.71
2023-02-16T15:37:37.092Z,24.70
2023-02-16T15:40:30.515Z,24.73
2023-02-16T15:43:07.718Z,24.74
2023-02-16T15:45:38.267Z,24.79
2023-02-16T15:48:24.933Z,24.77
2023-02-16T15:51:11.114Z,24.71
2023-02-16T15:54:07.474Z,24.69
2023-02-16T15:56:42.143Z,24.75
2023-02-16T15:59:25.354Z,24.76
2023-02-16T16:02:01.666Z,24.68
2023-02-16T16:04:38.818Z,24.79
2023-02-16T16:07:22.797Z,24.81
2023-02-16T16:09:51.976Z,25.01
2023-02-16T16:12:21.175Z,24.95
2023-02-16T16:14:59.071Z,24.82
2023-02-16T16:17:33.418Z,25.00
2023-02-16T16:20:32.181Z,24.85
2023-02-16T16:23:16.864Z,24.97
2023-02-16T16:25:50.807Z,24.93
2023-02-16T16:28:28.043Z,24.97
2023-02-16T16:31:10.004Z,25.09
2023-02-16T16:33:59.309Z,24.96
2023-02-16T16:36:43.138Z,24.94
2023-02-16T16:39:20.622Z,24.91
2023-02-16T16:42:10.727Z,25.01
2023-02-16T16:44:41.723Z,24.92
2023-02-16T16:47:33.841Z,25.00
2023-02-16T16:50:09.991Z,24.96
2023-02-16T16:52:56.093Z,24.91
2023-02-16T16:55:34.678Z,24.84
2023-02-16T16:58:10.397Z,25.03
2023-02-16T17:00:43.874Z,25.15
2023-02-16T17:03:16.159Z,25.13
2023-02-16T17:05:46.105Z,25.09
2023-02-16T17:08:16.902Z,25.27
2023-02-16T17:10:50.197Z,25.25
2023-02-16T17:13:22.533Z,25.04
2023-02-16T17:16:04.625Z,24.88
2023-02-16T17:18:32.846Z,25.00
2023-02-16T17:21:08.670Z,25.06
2023-02-16T17:23:40.301Z,24.74
2023-02-16T17:26:13.693Z,24.81
2023-02-16T17:28:56.844Z,24.74
2023-02-16T17:31:27.373Z,24.86
2023-02-16T17:34:03.107Z,24.85
2023-02-16T17:36:37.173Z,24.80
2023-02-16T17:39:13.329Z,24.69
2023-02-16T17:41:44.904Z,24.69
2023-02-16T17:44:20.981Z,24.67
2023-02-16T17:46:52.399Z,24.63
2023-02-16T17:49:30.817Z,24.63
2023-02-16T17:51:58.440Z,24.66
2023-02-16T17:54:31.668Z,24.58
2023-02-16T17:57:10.180Z,24.53
2023-02-16T17:59:42.180Z,24.54
2023-02-16T18:02:15.267Z,24.37
2023-02-16T18:04:45.573Z,24.49
2023-02-16T18:07:14.647Z,24.48
2023-02-16T18:09:45.228Z,24.52
2023-02-16T18:12:13.116Z,24.49
2023-02-16T18:14:40.878Z,24.54
2023-02-16T18:17:30.548Z,24.57
2023-02-16T18:19:58.429Z,24.49
2023-02-16T18:22:28.983Z,24.34
2023-02-16T18:24:59.628Z,24.17
2023-02-16T18:27:30.003Z,24.12
2023-02-16T18:29:57.627Z,24.14
2023-02-16T18:32:31.405Z,24.12
2023-02-16T18:34:59.024Z,24.04
2023-02-16T18:37:31.412Z,24.01
2023-02-16T18:39:59.371Z,23.97
2023-02-16T18:42:33.708Z,24.05
2023-02-16T18:45:04.223Z,23.99
2023-02-16T18:47:37.033Z,23.93
2023-02-16T18:50:09.432Z,23.83
2023-02-16T18:52:42.526Z,23.86
2023-02-16T18:55:18.522Z,23.79
2023-02-16T18:57:46.370Z,23.79
2023-02-16T19:00:17.367Z,23.75
2023-02-16T19:02:50.799Z,23.77
2023-02-16T19:05:22.535Z,23.77
2023-02-16T19:07:51.208Z,23.73
2023-02-16T19:10:25.201Z,23.75
2023-02-16T19:12:55.981Z,23.73
2023-02-16T19:15:23.775Z,23.71
2023-02-16T19:17:52.097Z,23.79
2023-02-16T19:20:22.682Z,23.72
2023-02-16T19:22:55.427Z,23.69
2023-02-16T19:25:26.928Z,23.62
2023-02-16T19:27:55.532Z,23.68
2023-02-16T19:30:25.621Z,23.65
2023-02-16T19:32:56.466Z,23.65
2023-02-16T19:35:24.308Z,23.67
2023-02-16T19:37:52.179Z,23.70
2023-02-16T19:40:24.330Z,23.64
2023-02-16T19:43:00.169Z,23.63
2023-02-16T19:45:31.106Z,23.67
2023-02-16T19:47:59.480Z,23.67
2023-02-16T19:50:32.023Z,23.70
2023-02-16T19:52:59.845Z,23.64
2023-02-16T19:55:27.580Z,23.71
2023-02-16T19:57:58.264Z,23.63
2023-02-16T20:00:31.105Z,23.68
2023-02-16T20:02:58.744Z,23.63
2023-02-16T20:05:31.093Z,23.61
2023-02-16T20:08:01.861Z,23.55
2023-02-16T20:10:34.933Z,23.60
2023-02-16T20:13:05.584Z,23.57
2023-02-16T20:15:36.098Z,23.53
2023-02-16T20:18:08.086Z,23.47
2023-02-16T20:20:41.668Z,23.48
2023-02-16T20:23:15.002Z,23.46
2023-02-16T20:25:45.453Z,23.48
2023-02-16T20:28:16.305Z,23.46
2023-02-16T20:30:46.515Z,23.46
2023-02-16T20:33:19.762Z,23.41
2023-02-16T20:35:53.467Z,23.39
2023-02-16T20:38:21.252Z,23.42
2023-02-16T20:40:51.623Z,23.38
2023-02-16T20:43:24.707Z,23.39
2023-02-16T20:46:00.243Z,23.38
2023-02-16T20:48:33.627Z,23.37
2023-02-16T20:51:08.084Z,23.34
2023-02-16T20:54:18.849Z,23.37
2023-02-16T20:56:50.335Z,23.33
2023-02-16T20:59:18.609Z,23.36
2023-02-16T21:01:54.467Z,23.38
2023-02-16T21:04:27.065Z,23.43
2023-02-16T21:07:04.260Z,23.40
2023-02-16T21:09:39.560Z,23.43
2023-02-16T21:12:07.062Z,23.32
2023-02-16T21:14:37.318Z,23.35
2023-02-16T21:17:07.831Z,23.29
2023-02-16T21:19:45.003Z,23.27
2023-02-16T21:22:15.436Z,23.34
2023-02-16T21:24:57.919Z,23.31
2023-02-16T21:27:34.502Z,23.34
2023-02-16T21:30:11.833Z,23.31
2023-02-16T21:32:42.616Z,23.27
2023-02-16T21:35:20.885Z,23.26
2023-02-16T21:37:58.237Z,23.22
2023-02-16T21:40:45.339Z,23.23
2023-02-16T21:43:42.702Z,23.25
2023-02-16T21:46:12.781Z,23.15
2023-02-16T21:48:46.679Z,23.15
2023-02-16T21:51:22.379Z,23.15
2023-02-16T21:53:58.207Z,23.10
2023-02-16T21:56:29.288Z,23.12
2023-02-16T21:58:57.862Z,23.21
2023-02-16T22:01:34.781Z,23.24
2023-02-16T22:04:02.906Z,23.19
2023-02-16T22:06:38.386Z,23.17
2023-02-16T22:09:14.980Z,23.17
2023-02-16T22:11:42.658Z,23.17
2023-02-16T22:14:15.196Z,23.19
2023-02-16T22:16:45.501Z,23.19
2023-02-16T22:19:14.597Z,23.19
2023-02-16T22:21:46.913Z,23.14
2023-02-16T22:24:17.203Z,23.15
2023-02-16T22:26:45.989Z,23.13
2023-02-16T22:29:16.801Z,23.14
2023-02-16T22:31:46.733Z,23.16
2023-02-16T22:34:22.738Z,23.10
2023-02-16T22:36:50.402Z,23.09
2023-02-16T22:39:19.069Z,23.05
2023-02-16T22:41:51.135Z,23.02
2023-02-16T22:44:21.792Z,23.05
2023-02-16T22:46:52.513Z,23.06
2023-02-16T22:49:22.389Z,23.11
2023-02-16T22:51:52.771Z,23.07
2023-02-16T22:54:25.204Z,23.04
2023-02-16T22:56:58.199Z,23.07
2023-02-16T22:59:31.137Z,23.05
2023-02-16T23:02:03.876Z,23.01
2023-02-16T23:04:37.069Z,23.08
2023-02-16T23:07:05.646Z,23.00
2023-02-16T23:09:38.173Z,23.03
2023-02-16T23:12:06.470Z,23.13
2023-02-16T23:14:37.906Z,23.13
2023-02-16T23:17:08.647Z,23.12
2023-02-16T23:19:42.753Z,23.17
2023-02-16T23:22:15.283Z,23.09
2023-02-16T23:25:05.728Z,23.14
2023-02-16T23:27:36.048Z,23.20
2023-02-16T23:30:04.399Z,23.23
2023-02-16T23:32:37.247Z,23.21
2023-02-16T23:35:10.565Z,23.20
2023-02-16T23:37:38.753Z,23.18
2023-02-16T23:40:09.780Z,23.18
2023-02-16T23:42:42.330Z,23.21
2023-02-16T23:45:12.677Z,23.18
2023-02-16T23:47:43.876Z,23.13
2023-02-16T23:50:16.745Z,23.12
2023-02-16T23:52:46.689Z,23.11
2023-02-16T23:55:17.496Z,23.01
2023-02-16T23:57:48.024Z,23.05
